Time;durP1;ratioP1;P1;durP2;ratioP2;P2;SDS_P1;SDS_P2;PMS_P1;PMS_P2;Temp;Humidity;BMP_temperature;BMP_pressure;BME280_temperature;BME280_humidity;BME280_pressure;Samples;Min_cycle;Max_cycle;Signal;HPM_P1;HPM_P2
2021/03/28 00:01:22;;;;;;;5.70;4.70;;;6.20;99.90;;;6.98;60.29;99175.25;5220916;28;20304;-56
2021/03/28 00:04:02;;;;;;;6.03;4.30;;;6.00;99.90;;;6.94;60.62;99169.00;5193810;28;20201;-55
2021/03/28 00:06:37;;;;;;;6.63;4.27;;;6.00;99.90;;;6.99;60.52;99167.78;5201131;28;20240;-53
2021/03/28 00:09:17;;;;;;;6.23;3.83;;;6.00;99.90;;;7.08;59.95;99165.19;5201715;28;20293;-52
2021/03/28 00:11:58;;;;;;;5.33;3.97;;;6.10;99.90;;;6.97;60.17;99170.94;5199724;28;20318;-56
2021/03/28 00:14:43;;;;;;;4.20;3.80;;;6.00;99.90;;;6.96;60.37;99171.72;5205862;28;20582;-52
2021/03/28 00:17:38;;;;;;;5.40;3.90;;;6.00;99.90;;;6.90;60.32;99174.59;5219098;28;20736;-55
2021/03/28 00:20:29;;;;;;;5.37;4.03;;;5.90;99.90;;;6.83;60.47;99173.84;5215578;28;20313;-55
2021/03/28 00:23:11;;;;;;;3.87;3.57;;;5.80;99.90;;;6.77;60.43;99170.00;5203684;28;20285;-58
2021/03/28 00:25:51;;;;;;;5.20;4.10;;;5.80;99.90;;;6.75;60.24;99173.13;5200015;28;20304;-57
2021/03/28 00:28:39;;;;;;;4.63;4.07;;;5.70;99.90;;;6.68;60.23;99166.59;5200467;28;20230;-55
2021/03/28 00:31:22;;;;;;;4.80;3.30;;;5.70;99.90;;;6.60;60.84;99165.00;5191523;28;20306;-54
2021/03/28 00:34:05;;;;;;;5.47;3.47;;;5.60;99.90;;;6.59;60.74;99168.28;5203312;28;20288;-55
2021/03/28 00:36:44;;;;;;;5.43;3.67;;;5.60;99.90;;;6.47;61.18;99168.03;5200996;28;20241;-52
2021/03/28 00:39:45;;;;;;;5.53;3.83;;;5.50;99.90;;;6.38;60.71;99163.72;5189918;28;20684;-51
2021/03/28 00:42:31;;;;;;;4.37;3.70;;;5.40;99.90;;;6.30;61.21;99157.94;5200255;28;20220;-55
2021/03/28 00:45:20;;;;;;;6.67;4.10;;;5.30;99.90;;;6.18;62.30;99167.84;5192796;28;20644;-52
2021/03/28 00:48:06;;;;;;;5.43;3.80;;;5.20;99.90;;;6.13;62.39;99169.03;5199701;28;20228;-53
2021/03/28 00:50:41;;;;;;;5.20;3.57;;;5.20;99.90;;;5.96;61.89;99164.88;5204535;28;20245;-53
2021/03/28 00:53:30;;;;;;;5.03;3.40;;;5.10;99.90;;;5.90;62.12;99168.44;5205320;28;20224;-57
2021/03/28 00:56:09;;;;;;;4.97;4.10;;;5.00;99.90;;;5.94;62.69;99170.56;5192912;28;20205;-53
2021/03/28 00:58:52;;;;;;;6.60;4.50;;;5.00;99.90;;;5.90;62.33;99174.41;5191440;28;20203;-51
2021/03/28 01:01:35;;;;;;;6.73;4.37;;;4.90;99.90;;;5.78;62.58;99174.13;5190730;28;20214;-52
2021/03/28 01:04:37;;;;;;;6.53;4.00;;;4.90;99.90;;;5.82;63.30;99171.13;5205125;28;20205;-53
2021/03/28 01:07:19;;;;;;;4.23;3.93;;;4.90;99.90;;;5.70;63.45;99169.06;5195509;28;20229;-52
2021/03/28 01:10:17;;;;;;;6.40;4.50;;;4.80;99.90;;;5.78;64.30;99169.06;5184596;28;20218;-56
2021/03/28 01:13:25;;;;;;;4.87;3.63;;;4.90;99.90;;;5.68;63.72;99176.50;5186851;28;20289;-55
2021/03/28 01:16:44;;;;;;;4.40;4.00;;;4.70;99.90;;;5.63;64.20;99177.69;5175991;28;20741;-52
2021/03/28 01:20:23;;;;;;;4.60;3.80;;;4.60;99.90;;;5.58;64.27;99169.66;5160463;28;20651;-53
2021/03/28 01:23:10;;;;;;;5.93;3.83;;;4.60;99.90;;;5.69;64.48;99165.59;5198362;28;20289;-56
2021/03/28 01:26:26;;;;;;;4.63;4.03;;;4.70;99.90;;;5.75;64.28;99171.31;5187131;28;20231;-54
2021/03/28 01:29:10;;;;;;;3.77;3.47;;;4.70;99.90;;;5.77;65.01;99173.97;5182864;28;20205;-54
2021/03/28 01:31:51;;;;;;;5.10;3.93;;;4.80;99.90;;;5.76;64.52;99167.13;5207613;28;20230;-54
2021/03/28 01:34:28;;;;;;;4.17;3.77;;;4.80;99.90;;;5.82;64.62;99166.06;5198992;28;20236;-55
2021/03/28 01:37:13;;;;;;;3.77;3.47;;;4.80;99.90;;;5.86;64.48;99163.06;5199272;28;20282;-51
2021/03/28 01:39:52;;;;;;;5.37;3.93;;;4.80;99.90;;;5.88;64.84;99156.50;5191006;28;20684;-54
2021/03/28 01:42:42;;;;;;;4.03;3.40;;;4.80;99.90;;;5.86;64.51;99163.06;5202341;28;20205;-53
2021/03/28 01:45:27;;;;;;;4.23;3.70;;;4.80;99.90;;;5.84;64.72;99158.59;5207929;28;20194;-55
2021/03/28 01:48:33;;;;;;;5.13;3.90;;;4.80;99.90;;;5.72;65.24;99160.81;5208027;28;20245;-54
2021/03/28 01:51:29;;;;;;;5.20;3.87;;;4.60;99.90;;;5.65;65.04;99161.00;5208672;28;20305;-55
2021/03/28 01:54:11;;;;;;;4.47;3.40;;;4.60;99.90;;;5.49;65.72;99167.84;5193315;28;20202;-54
2021/03/28 01:56:52;;;;;;;4.40;3.77;;;4.50;99.90;;;5.39;65.79;99161.88;5188037;28;20289;-52
2021/03/28 01:59:40;;;;;;;5.10;3.37;;;4.40;99.90;;;5.51;65.28;99167.25;5202698;28;20643;-54
2021/03/28 02:02:35;;;;;;;5.40;3.33;;;4.50;99.90;;;5.55;66.11;99176.97;5208939;28;20615;-52
2021/03/28 02:05:17;;;;;;;5.63;4.03;;;4.60;99.90;;;5.60;66.66;99173.22;5188147;28;20207;-54
2021/03/28 02:08:11;;;;;;;4.37;3.57;;;4.60;99.90;;;5.59;66.49;99175.63;5188752;28;20775;-53
2021/03/28 02:10:57;;;;;;;6.43;3.70;;;4.50;99.90;;;5.57;66.74;99172.91;5188140;28;20234;-54
2021/03/28 02:13:42;;;;;;;5.33;3.83;;;4.60;99.90;;;5.55;66.59;99178.59;5194077;28;20273;-55
2021/03/28 02:16:20;;;;;;;4.67;3.87;;;4.50;99.90;;;5.47;66.55;99179.50;5194581;28;20574;-55
2021/03/28 02:19:07;;;;;;;4.33;3.93;;;4.50;99.90;;;5.49;66.81;99180.53;5194536;28;20301;-53
2021/03/28 02:21:54;;;;;;;6.73;3.47;;;4.40;99.90;;;5.39;67.07;99182.16;5188083;28;20240;-54
2021/03/28 02:24:43;;;;;;;4.40;3.77;;;4.40;99.90;;;5.40;67.07;99188.13;5189932;28;20296;-55
2021/03/28 02:27:22;;;;;;;4.17;3.77;;;4.40;99.90;;;5.34;67.32;99178.28;5195492;28;20315;-52
2021/03/28 02:30:08;;;;;;;3.97;3.63;;;4.40;99.90;;;5.35;67.10;99176.63;5207412;28;20633;-55
2021/03/28 02:32:53;;;;;;;4.27;3.87;;;4.40;99.90;;;5.37;66.73;99181.13;5209342;28;20201;-53
2021/03/28 02:35:52;;;;;;;4.13;3.73;;;4.40;99.90;;;5.33;67.38;99179.03;5207787;28;20251;-54
2021/03/28 02:38:47;;;;;;;4.30;3.93;;;4.30;99.90;;;5.40;67.55;99173.81;5187191;28;20200;-53
2021/03/28 02:41:25;;;;;;;4.10;3.47;;;4.40;99.90;;;5.41;67.73;99169.66;5191419;28;20210;-54
2021/03/28 02:44:17;;;;;;;7.13;4.60;;;4.40;99.90;;;5.32;67.86;99169.66;5205943;28;20295;-55
2021/03/28 02:46:57;;;;;;;5.13;4.10;;;4.40;99.90;;;5.39;67.60;99174.56;5208090;28;20315;-52
2021/03/28 02:50:00;;;;;;;5.37;3.50;;;4.50;99.90;;;5.46;67.87;99175.16;5228429;28;20295;-53
2021/03/28 02:52:49;;;;;;;5.20;4.23;;;4.40;99.90;;;5.41;67.41;99178.16;5202308;28;20288;-52
2021/03/28 02:55:40;;;;;;;5.17;4.20;;;4.40;99.90;;;5.44;67.78;99177.56;5187314;28;20311;-54
2021/03/28 02:58:38;;;;;;;4.50;3.93;;;4.40;99.90;;;5.41;67.94;99179.78;5194490;28;20277;-54
2021/03/28 03:01:30;;;;;;;5.33;4.03;;;4.50;99.90;;;5.49;67.59;99178.88;5208239;28;20311;-52
2021/03/28 03:04:23;;;;;;;4.77;4.10;;;4.50;99.90;;;5.49;67.58;99178.00;5206251;28;20220;-53
2021/03/28 03:07:33;;;;;;;5.10;3.83;;;4.60;99.90;;;5.56;67.32;99175.31;5206423;28;20721;-55
2021/03/28 03:10:33;;;;;;;4.50;4.10;;;4.50;99.90;;;5.60;67.10;99182.47;5206767;28;20236;-52
2021/03/28 03:13:16;;;;;;;4.63;3.63;;;4.60;99.90;;;5.48;66.92;99188.88;5204226;28;20327;-56
2021/03/28 03:15:58;;;;;;;6.43;4.60;;;4.40;99.90;;;5.33;67.53;99180.69;5206939;28;20202;-55
2021/03/28 03:19:21;;;;;;;6.03;4.13;;;4.30;99.90;;;5.30;68.17;99185.44;5188611;28;20233;-53
2021/03/28 03:22:39;;;;;;;6.90;4.10;;;4.30;99.90;;;5.42;68.07;99186.66;5205129;28;20316;-54
2021/03/28 03:25:56;;;;;;;5.73;3.83;;;4.30;99.90;;;5.34;68.30;99183.34;5197433;28;20291;-56
2021/03/28 03:29:14;;;;;;;5.67;4.33;;;4.30;99.90;;;5.28;68.91;99172.59;5198172;28;20306;-55
2021/03/28 03:32:07;;;;;;;4.70;3.73;;;4.20;99.90;;;5.38;69.05;99175.31;5194619;28;20655;-52
2021/03/28 03:35:01;;;;;;;4.77;3.80;;;4.30;99.90;;;5.40;68.85;99178.88;5196059;28;20727;-54
2021/03/28 03:38:17;;;;;;;4.37;4.00;;;4.40;99.90;;;5.25;68.76;99172.31;5187017;28;20276;-52
2021/03/28 03:41:12;;;;;;;4.90;3.73;;;4.30;99.90;;;5.20;69.32;99183.63;5197043;28;20275;-51
2021/03/28 03:44:04;;;;;;;3.17;2.90;;;4.20;99.90;;;5.27;69.11;99180.97;5198748;28;20201;-53
2021/03/28 03:46:56;;;;;;;5.80;3.70;;;4.20;99.90;;;5.22;69.27;99184.69;5204971;28;20319;-52
2021/03/28 03:50:17;;;;;;;4.17;3.63;;;4.20;99.90;;;5.11;69.81;99182.72;5200399;28;20239;-51
2021/03/28 03:53:05;;;;;;;4.00;3.60;;;4.10;99.90;;;5.09;69.61;99186.72;5203487;28;20207;-55
2021/03/28 03:55:42;;;;;;;4.23;3.83;;;4.10;99.90;;;5.18;70.05;99191.09;5205836;28;20210;-55
2021/03/28 03:58:28;;;;;;;5.80;4.00;;;4.20;99.90;;;5.17;70.14;99189.28;5199789;28;20203;-52
2021/03/28 04:01:19;;;;;;;5.60;4.00;;;4.20;99.90;;;5.10;70.00;99186.00;5197993;28;20255;-55
2021/03/28 04:04:07;;;;;;;3.77;3.47;;;4.10;99.90;;;5.17;70.02;99183.31;5203761;28;20208;-55
2021/03/28 04:07:04;;;;;;;4.60;4.20;;;4.30;99.90;;;5.19;70.45;99187.81;5194207;28;20260;-53
2021/03/28 04:09:48;;;;;;;6.03;3.97;;;4.30;99.90;;;5.27;70.65;99190.22;5185833;28;20205;-51
2021/03/28 04:12:50;;;;;;;3.93;3.43;;;4.30;99.90;;;5.29;70.28;99194.66;5202391;28;20307;-51
2021/03/28 04:15:36;;;;;;;4.03;3.63;;;4.40;99.90;;;5.29;70.41;99189.59;5187778;28;20648;-54
2021/03/28 04:18:34;;;;;;;5.43;3.97;;;4.40;99.90;;;5.31;70.54;99193.19;5196533;28;20668;-51
2021/03/28 04:21:21;;;;;;;5.40;3.67;;;4.40;99.90;;;5.39;70.42;99194.84;5205942;28;20320;-52
2021/03/28 04:24:32;;;;;;;4.53;4.23;;;4.50;99.90;;;5.47;70.59;99202.31;5200607;28;20610;-55
2021/03/28 04:27:38;;;;;;;5.13;3.67;;;4.40;99.90;;;5.43;70.75;99198.56;5121905;29;20266;-54
2021/03/28 04:30:40;;;;;;;4.80;4.20;;;4.40;99.90;;;5.37;70.69;99197.97;5187415;28;20746;-52
2021/03/28 04:33:31;;;;;;;4.20;3.73;;;4.30;99.90;;;5.32;71.25;99200.06;5227523;22;20660;-58
2021/03/28 04:36:19;;;;;;;4.47;3.60;;;4.30;99.90;;;5.24;70.84;99200.06;5226001;28;20286;-59
2021/03/28 04:39:13;;;;;;;4.17;3.87;;;4.30;99.90;;;5.24;71.26;99205.13;5225808;28;20206;-57
2021/03/28 04:42:27;;;;;;;4.30;4.00;;;4.20;99.90;;;5.15;71.31;99206.00;5222558;28;20718;-59
2021/03/28 04:45:48;;;;;;;5.73;3.70;;;4.10;99.90;;;5.03;71.82;99211.47;5215766;28;20645;-59
2021/03/28 04:48:59;;;;;;;4.60;3.90;;;4.00;99.90;;;4.94;72.52;99217.38;5208915;28;20275;-59
2021/03/28 04:52:20;;;;;;;3.80;3.50;;;3.90;99.90;;;4.94;72.50;99219.91;5204869;28;20307;-58
2021/03/28 04:55:27;;;;;;;5.57;3.63;;;3.90;99.90;;;4.82;72.68;99223.75;5219770;28;20197;-58
2021/03/28 04:58:22;;;;;;;3.80;3.40;;;3.80;99.90;;;4.72;72.80;99231.16;5217840;28;20282;-58
2021/03/28 05:01:20;;;;;;;5.03;3.87;;;3.70;99.90;;;4.68;72.98;99229.06;5220547;28;20570;-58
2021/03/28 05:04:28;;;;;;;4.30;3.90;;;3.70;99.90;;;4.72;72.92;99236.22;5205344;28;20238;-59
2021/03/28 05:07:38;;;;;;;5.93;3.83;;;3.70;99.90;;;4.61;72.84;99221.59;5220392;28;20319;-58
2021/03/28 05:10:47;;;;;;;4.63;3.83;;;3.60;99.90;;;4.60;72.41;99230.81;5222993;28;20297;-59
2021/03/28 05:14:06;;;;;;;7.37;4.00;;;3.60;99.90;;;4.60;72.66;99228.28;5207821;28;20214;-58
2021/03/28 05:17:18;;;;;;;6.73;4.03;;;3.60;99.90;;;4.58;72.68;99231.38;5204510;28;20288;-59
2021/03/28 05:20:38;;;;;;;5.33;4.03;;;3.60;99.90;;;4.45;73.01;99235.19;5191865;28;20202;-59
2021/03/28 05:24:00;;;;;;;5.60;4.30;;;3.50;99.90;;;4.50;72.91;99241.63;5221771;28;20220;-59
2021/03/28 05:27:16;;;;;;;4.67;4.30;;;3.50;99.90;;;4.59;73.25;99235.72;5225113;28;20293;-59
2021/03/28 05:30:38;;;;;;;4.53;3.83;;;3.60;99.90;;;4.63;73.28;99241.25;5220344;28;20680;-58
2021/03/28 05:33:59;;;;;;;4.90;3.93;;;3.70;99.90;;;4.69;72.98;99243.50;5208452;28;20231;-58
2021/03/28 05:36:53;;;;;;;4.00;3.60;;;3.70;99.90;;;4.77;72.89;99230.00;5225317;28;20583;-57
2021/03/28 05:39:56;;;;;;;5.00;4.47;;;3.70;99.90;;;4.82;72.92;99244.03;5222265;28;20294;-59
2021/03/28 05:43:20;;;;;;;6.67;4.17;;;3.70;99.90;;;4.85;72.58;99240.91;5225058;28;20217;-57
2021/03/28 05:49:53;;;;;;;5.83;3.87;;;3.70;99.90;;;4.89;72.23;99237.94;5306558;27;20602;-60
2021/03/28 05:53:28;;;;;;;4.73;4.20;;;3.80;99.90;;;4.93;72.66;99223.22;5264565;28;20227;-59
2021/03/28 05:56:43;;;;;;;5.97;3.67;;;3.90;99.90;;;5.04;72.26;99225.94;5265993;28;20224;-58
2021/03/28 05:59:57;;;;;;;4.40;3.80;;;3.90;99.90;;;5.16;71.29;99224.63;5271104;28;20716;-60
2021/03/28 06:03:17;;;;;;;5.30;3.67;;;4.00;99.90;;;5.12;71.09;99222.50;5269308;28;20217;-60
2021/03/28 06:06:48;;;;;;;5.20;4.10;;;3.90;99.90;;;5.06;70.70;99234.56;5283851;28;20288;-60
2021/03/28 06:10:32;;;;;;;7.03;4.70;;;4.00;99.90;;;5.25;70.78;99240.75;5276381;28;20203;-59
2021/03/28 06:13:28;;;;;;;7.43;5.10;;;4.10;99.90;;;5.54;70.58;99241.09;5210258;28;20223;-57
2021/03/28 06:16:46;;;;;;;5.97;4.67;;;4.30;99.90;;;5.91;69.11;99256.50;5215987;28;20195;-55
2021/03/28 06:20:04;;;;;;;5.43;4.03;;;4.70;99.90;;;5.96;69.00;99255.34;5199594;28;20292;-55
2021/03/28 06:23:24;;;;;;;5.43;4.33;;;4.70;99.90;;;6.07;68.21;99247.13;5265277;28;20224;-57
2021/03/28 06:26:40;;;;;;;4.53;3.70;;;4.70;99.90;;;6.32;67.37;99253.81;5263552;28;20200;-58
2021/03/28 06:30:12;;;;;;;4.07;3.73;;;4.90;99.90;;;6.52;67.49;99257.34;5269096;28;20755;-59
2021/03/28 06:33:25;;;;;;;3.90;3.57;;;5.10;99.90;;;6.63;67.08;99259.25;5277696;28;20314;-57
2021/03/28 06:36:37;;;;;;;5.33;3.97;;;5.10;99.90;;;6.83;66.46;99260.25;5274532;28;20199;-58
2021/03/28 06:39:54;;;;;;;5.47;4.03;;;5.30;99.90;;;7.46;63.81;99269.53;5271736;28;20663;-58
2021/03/28 06:43:11;;;;;;;5.60;4.33;;;5.60;99.90;;;7.93;62.17;99262.78;5270123;28;20211;-56
2021/03/28 06:46:15;;;;;;;7.93;4.57;;;6.00;99.90;;;7.75;62.19;99258.56;5278836;28;20284;-59
2021/03/28 06:49:36;;;;;;;7.07;6.40;;;6.00;99.90;;;7.94;61.97;99262.03;5270721;28;20573;-59
2021/03/28 06:52:26;;;;;;;8.43;5.50;;;6.00;99.90;;;8.44;61.28;99260.56;5280289;28;20733;-57
2021/03/28 06:55:39;;;;;;;5.80;4.50;;;6.50;99.90;;;9.07;59.63;99257.44;5282815;28;20229;-57
2021/03/28 06:59:05;;;;;;;5.63;4.90;;;6.90;99.90;;;9.62;55.06;99265.56;5280253;28;20713;-57
2021/03/28 07:02:22;;;;;;;4.87;4.47;;;7.20;99.90;;;10.51;54.93;99257.53;5250953;28;20270;-60
2021/03/28 07:05:25;;;;;;;5.67;4.27;;;7.70;99.90;;;11.36;52.27;99257.34;5256105;28;20287;-57
2021/03/28 07:08:34;;;;;;;5.50;4.53;;;8.40;99.90;;;11.73;51.24;99257.53;5254859;28;20299;-58
2021/03/28 07:11:25;;;;;;;7.10;5.17;;;8.80;99.90;;;12.10;50.65;99258.66;5199718;28;20291;-58
2021/03/28 07:14:46;;;;;;;6.30;4.63;;;9.00;99.90;;;12.34;48.87;99261.22;5257608;28;20188;-57
2021/03/28 07:18:08;;;;;;;5.95;4.45;;;9.40;99.90;;;12.10;49.25;99260.31;5253970;28;20275;-58
2021/03/28 07:21:05;;;;;;;5.43;4.93;;;9.60;99.90;;;12.04;50.38;99255.63;5199487;28;20248;-59
2021/03/28 07:24:15;;;;;;;5.65;4.32;;;9.60;99.90;;;11.99;50.31;99253.50;5194287;28;20761;-60
2021/03/28 07:27:39;;;;;;;4.78;4.28;;;9.60;99.90;;;11.57;50.69;99252.94;5260840;28;20282;-57
2021/03/28 07:31:03;;;;;;;5.40;4.90;;;9.50;99.90;;;11.52;51.79;99233.78;5250872;28;20189;-60
2021/03/28 07:34:49;;;;;;;5.55;4.65;;;9.60;99.90;;;11.54;50.85;99237.34;5251537;28;20483;-57
2021/03/28 07:38:27;;;;;;;5.75;4.40;;;9.90;99.90;;;11.80;51.39;99248.66;5234253;28;20196;-56
2021/03/28 07:41:44;;;;;;;5.13;4.25;;;9.90;99.90;;;11.82;51.09;99260.81;5263517;28;20748;-57
2021/03/28 07:44:59;;;;;;;5.13;4.50;;;9.90;99.90;;;12.13;50.29;99268.22;5250786;28;20193;-57
2021/03/28 07:48:14;;;;;;;7.85;4.80;;;10.20;99.90;;;12.61;49.90;99258.06;5265927;28;20227;-57
2021/03/28 07:51:25;;;;;;;6.53;4.70;;;10.70;99.40;;;12.74;48.20;99276.91;5266807;28;20204;-58
2021/03/28 07:54:56;;;;;;;5.25;4.22;;;11.10;98.80;;;12.82;48.40;99275.78;5246230;28;20288;-58
2021/03/28 07:58:05;;;;;;;4.55;4.13;;;11.20;97.70;;;13.07;48.58;99274.16;5243854;28;20199;-58
2021/03/28 08:01:04;;;;;;;7.63;3.90;;;11.40;97.80;;;13.25;48.26;99269.47;5214420;28;20301;-57
2021/03/28 08:04:43;;;;;;;6.20;3.92;;;11.80;97.30;;;13.71;44.69;99261.44;5246827;28;20655;-58
2021/03/28 08:07:34;;;;;;;5.20;3.67;;;12.30;94.80;;;13.88;43.99;99260.88;5203203;28;20206;-57
2021/03/28 08:11:07;;;;;;;5.82;3.15;;;12.30;94.10;;;14.06;43.08;99265.47;5260381;28;20702;-57
2021/03/28 08:14:43;;;;;;;6.43;3.70;;;12.40;93.70;;;14.20;41.60;99285.25;5249439;28;20289;-61
2021/03/28 08:17:39;;;;;;;5.57;2.78;;;12.40;93.30;;;13.95;42.51;99283.63;5210641;28;20192;-63
2021/03/28 08:20:48;;;;;;;4.97;3.10;;;12.10;93.60;;;13.79;42.50;99288.50;5257306;28;20192;-60
2021/03/28 08:24:08;;;;;;;5.53;3.17;;;12.20;93.20;;;13.75;44.21;99295.13;5262843;28;20295;-61
2021/03/28 08:26:53;;;;;;;3.75;3.10;;;12.30;93.90;;;13.88;42.71;99309.72;5213780;28;20202;-60
2021/03/28 08:29:54;;;;;;;4.43;3.10;;;12.60;92.90;;;13.93;43.39;99310.00;5255719;28;20222;-61
2021/03/28 08:32:47;;;;;;;5.25;3.20;;;12.50;93.00;;;13.84;42.56;99310.28;5260992;28;20219;-58
2021/03/28 08:35:36;;;;;;;6.28;3.67;;;12.50;92.60;;;13.63;42.63;99303.69;5250893;28;20703;-60
2021/03/28 08:38:56;;;;;;;4.20;3.10;;;12.30;92.50;;;13.70;42.81;99311.03;5263756;28;20219;-58
2021/03/28 08:42:13;;;;;;;5.03;3.22;;;12.10;92.90;;;13.59;42.89;99318.03;5238960;28;20689;-58
2021/03/28 08:45:19;;;;;;;6.22;3.20;;;12.20;92.90;;;13.57;43.41;99318.69;5257246;28;20586;-58
2021/03/28 08:48:27;;;;;;;5.68;3.50;;;12.10;93.40;;;13.79;43.59;99321.03;5251612;28;20216;-60
2021/03/28 08:51:31;;;;;;;6.63;3.70;;;12.30;93.30;;;14.00;42.79;99313.91;5257973;28;20196;-58
2021/03/28 08:54:12;;;;;;;4.47;3.35;;;12.90;92.40;;;14.28;43.08;99317.53;5257068;28;20202;-61
2021/03/28 08:56:55;;;;;;;6.93;3.72;;;13.20;92.30;;;14.57;42.31;99319.44;5266242;28;20273;-61
2021/03/28 08:59:51;;;;;;;4.80;3.42;;;13.40;92.50;;;14.57;41.93;99328.84;5254014;28;20198;-61
2021/03/28 09:02:46;;;;;;;6.05;3.00;;;13.50;91.40;;;14.66;41.88;99333.72;5256699;28;20302;-57
2021/03/28 09:05:31;;;;;;;6.50;3.03;;;13.50;91.70;;;14.74;42.22;99323.13;5263664;28;20298;-59
2021/03/28 09:08:11;;;;;;;8.10;3.90;;;13.50;91.90;;;14.81;41.79;99320.13;5257084;28;20220;-59
2021/03/28 09:11:22;;;;;;;6.22;3.67;;;13.60;91.50;;;15.03;40.67;99311.19;5246067;28;20196;-57
2021/03/28 09:14:06;;;;;;;6.65;2.92;;;14.00;90.70;;;15.10;40.11;99318.50;5246021;28;20223;-58
2021/03/28 09:16:51;;;;;;;3.67;3.05;;;14.00;90.50;;;15.17;39.90;99312.06;5246952;28;20189;-58
2021/03/28 09:20:15;;;;;;;5.32;3.05;;;14.10;90.00;;;15.41;38.76;99313.56;5248367;28;20191;-57
2021/03/28 09:23:06;;;;;;;7.57;2.85;;;14.40;88.00;;;15.35;38.84;99304.59;5261906;28;20319;-58
2021/03/28 09:25:49;;;;;;;4.35;3.25;;;14.50;87.70;;;15.44;38.08;99308.59;5253542;28;20247;-59
2021/03/28 09:28:34;;;;;;;7.07;3.45;;;14.60;86.50;;;15.50;38.38;99308.09;5271798;28;20212;-61
2021/03/28 09:31:19;;;;;;;6.03;3.05;;;14.50;87.20;;;15.49;38.04;99302.06;5261995;28;20193;-57
2021/03/28 09:34:05;;;;;;;6.10;2.80;;;14.40;86.90;;;15.43;38.23;99298.22;5244970;28;20291;-58
2021/03/28 09:36:46;;;;;;;4.85;2.83;;;14.20;86.90;;;15.36;37.22;99291.78;5248707;28;20577;-60
2021/03/28 09:39:47;;;;;;;5.63;2.67;;;14.10;85.30;;;15.08;36.56;99291.78;5260883;28;20214;-59
2021/03/28 09:42:45;;;;;;;4.28;2.72;;;13.80;84.60;;;15.06;36.49;99290.78;5265814;28;20259;-60
2021/03/28 09:46:07;;;;;;;6.25;2.78;;;13.90;84.00;;;14.97;38.28;99285.06;5256556;28;20573;-58
2021/03/28 09:49:21;;;;;;;4.85;2.85;;;13.90;86.00;;;15.00;36.72;99282.69;5253741;28;20223;-58
2021/03/28 09:52:32;;;;;;;4.53;2.53;;;14.10;83.10;;;15.05;36.97;99278.69;5264961;28;20223;-59
2021/03/28 09:55:30;;;;;;;3.95;2.88;;;14.20;83.70;;;14.84;36.82;99262.81;5244892;28;20204;-58
2021/03/28 09:58:59;;;;;;;4.28;2.53;;;14.00;82.50;;;15.05;36.58;99265.81;5248475;28;20589;-58
2021/03/28 10:01:49;;;;;;;3.30;2.17;;;14.20;82.60;;;15.19;34.86;99272.72;5257296;28;20303;-58
2021/03/28 10:04:57;;;;;;;5.15;2.30;;;14.50;79.20;;;15.43;34.78;99268.19;5245728;28;20659;-58
2021/03/28 10:07:43;;;;;;;4.63;2.65;;;14.50;80.40;;;15.57;34.64;99260.38;5244894;28;20287;-59
2021/03/28 10:10:30;;;;;;;3.00;1.95;;;14.70;78.90;;;15.65;32.79;99260.06;5244666;28;20583;-58
2021/03/28 10:13:19;;;;;;;2.63;2.05;;;14.90;75.90;;;15.62;33.53;99265.00;5260675;28;20302;-57
2021/03/28 10:16:01;;;;;;;4.40;2.50;;;14.70;76.60;;;15.68;34.16;99260.28;5246600;28;20617;-58
2021/03/28 10:19:05;;;;;;;3.25;2.20;;;14.80;78.20;;;15.75;33.42;99264.97;5245828;28;20287;-59
2021/03/28 10:22:06;;;;;;;2.72;2.40;;;14.80;77.30;;;15.80;30.73;99266.97;5246986;28;20589;-56
2021/03/28 10:25:29;;;;;;;2.55;2.35;;;15.00;72.20;;;15.69;31.20;99259.47;5265666;28;20723;-59
2021/03/28 10:29:04;;;;;;;3.10;2.00;;;14.90;72.10;;;15.92;31.80;99257.34;5247658;28;20223;-57
2021/03/28 10:31:56;;;;;;;4.13;2.10;;;15.10;73.70;;;15.76;32.10;99248.69;5242396;28;20265;-57
2021/03/28 10:35:31;;;;;;;4.15;2.20;;;14.90;73.30;;;15.85;31.59;99247.47;5255233;28;20333;-58
2021/03/28 10:38:26;;;;;;;3.70;2.20;;;15.00;72.80;;;15.87;31.76;99236.44;5258825;28;20583;-59
2021/03/28 10:41:14;;;;;;;2.88;2.08;;;15.10;73.00;;;15.98;31.24;99247.41;5250816;28;20752;-59
2021/03/28 10:44:06;;;;;;;2.97;2.30;;;15.10;72.70;;;15.97;30.47;99248.22;5250159;28;20199;-59
2021/03/28 10:47:39;;;;;;;3.55;2.50;;;15.20;71.10;;;15.97;31.86;99243.06;5249341;28;20212;-58
2021/03/28 10:50:56;;;;;;;3.92;2.42;;;15.20;72.70;;;15.82;31.93;99236.97;5248776;28;20196;-58
2021/03/28 10:53:55;;;;;;;3.25;2.40;;;15.00;73.10;;;15.85;32.02;99239.72;5248321;28;20708;-59
2021/03/28 10:57:47;;;;;;;2.13;1.92;;;15.10;72.70;;;15.85;31.56;99239.72;5258203;28;20290;-59
2021/03/28 11:00:48;;;;;;;3.50;2.25;;;15.10;72.30;;;15.71;32.80;99229.53;5258923;28;20228;-59
2021/03/28 11:04:10;;;;;;;4.10;2.55;;;14.90;74.10;;;15.75;32.42;99231.47;5265317;28;20381;-58
2021/03/28 11:06:55;;;;;;;3.10;2.33;;;15.00;73.40;;;15.76;31.88;99233.22;5246814;28;20247;-60
2021/03/28 11:09:58;;;;;;;3.63;2.30;;;14.90;72.90;;;15.72;32.44;99220.09;5265492;28;20630;-59
2021/03/28 11:12:49;;;;;;;3.13;2.20;;;14.80;73.40;;;15.72;32.17;99220.97;5261193;28;20582;-59
2021/03/28 11:15:43;;;;;;;3.28;2.50;;;14.80;73.70;;;15.65;32.67;99208.50;5265146;28;20200;-59
2021/03/28 11:18:43;;;;;;;4.18;2.53;;;14.80;73.30;;;15.64;31.75;99198.97;5261475;28;20525;-56
2021/03/28 11:21:29;;;;;;;3.85;2.20;;;14.80;73.10;;;15.62;32.37;99192.84;5242054;28;20202;-59
2021/03/28 11:24:29;;;;;;;3.47;2.30;;;14.90;72.90;;;15.55;32.86;99190.72;5250243;28;20647;-60
2021/03/28 11:27:41;;;;;;;4.10;2.15;;;14.80;73.90;;;15.76;32.59;99180.78;5252858;28;20272;-59
2021/03/28 11:30:31;;;;;;;3.33;2.17;;;14.90;73.70;;;15.88;33.02;99183.19;5244475;22;20708;-63
2021/03/28 11:33:25;;;;;;;3.25;2.65;;;15.00;73.90;;;15.67;32.18;99182.81;5181024;28;20203;-63
2021/03/28 11:36:14;;;;;;;3.08;2.50;;;14.90;73.00;;;15.63;32.68;99179.16;5179658;28;20302;-63
2021/03/28 11:39:15;;;;;;;3.17;2.38;;;14.90;72.70;;;15.51;32.57;99181.03;5183815;28;20257;-64
2021/03/28 11:42:19;;;;;;;4.13;2.63;;;14.80;72.90;;;15.66;33.57;99169.03;5184667;28;20241;-64
2021/03/28 11:45:32;;;;;;;3.08;2.78;;;14.80;75.30;;;15.71;33.25;99177.97;5184327;28;20290;-63
2021/03/28 11:48:29;;;;;;;4.60;2.78;;;15.00;75.10;;;15.79;34.06;99177.50;5176997;28;20214;-63
2021/03/28 11:51:21;;;;;;;5.47;3.20;;;15.00;75.60;;;15.83;33.48;99166.59;5184362;28;20249;-63
2021/03/28 11:54:15;;;;;;;4.70;2.28;;;15.10;74.70;;;15.82;32.70;99169.94;5185070;28;20678;-63
2021/03/28 11:56:52;;;;;;;3.53;2.70;;;15.10;73.50;;;15.79;33.68;99164.63;5184021;28;20226;-63
2021/03/28 11:59:36;;;;;;;3.20;2.33;;;14.90;76.20;;;15.80;34.08;99163.84;5184751;28;20241;-63
2021/03/28 12:02:28;;;;;;;3.05;2.20;;;14.80;75.80;;;15.83;34.59;99164.00;5183862;28;20294;-63
2021/03/28 12:05:49;;;;;;;4.75;2.50;;;14.90;77.00;;;15.90;34.58;99161.84;5184879;28;20628;-63
2021/03/28 12:08:26;;;;;;;3.53;2.38;;;15.10;76.60;;;15.87;34.37;99156.50;5183665;28;20254;-63
2021/03/28 12:11:33;;;;;;;3.75;3.22;;;15.10;77.20;;;15.90;33.49;99150.66;5184585;28;20309;-64
2021/03/28 12:14:25;;;;;;;3.28;2.97;;;15.10;75.40;;;15.90;32.18;99140.34;5176007;28;20666;-63
2021/03/28 12:17:27;;;;;;;4.50;2.92;;;15.10;73.30;;;15.71;33.81;99149.59;5183421;28;20666;-63
2021/03/28 12:20:24;;;;;;;4.25;2.72;;;14.90;75.50;;;15.67;33.39;99129.56;5180085;28;20585;-63
2021/03/28 12:23:01;;;;;;;3.35;2.72;;;14.80;75.00;;;15.60;34.11;99131.72;5180210;28;20656;-63
2021/03/28 12:25:36;;;;;;;3.50;2.53;;;14.70;76.50;;;15.71;33.59;99126.41;5183868;28;20190;-63
2021/03/28 12:28:33;;;;;;;3.67;2.50;;;14.90;75.90;;;15.73;33.72;99111.00;5183544;28;20217;-63
2021/03/28 12:31:28;;;;;;;3.88;2.47;;;14.90;74.90;;;15.74;33.35;99118.84;5183100;28;20230;-63
2021/03/28 12:34:27;;;;;;;3.58;2.40;;;14.80;75.20;;;15.81;33.34;99119.19;5181070;28;20287;-64
2021/03/28 12:37:04;;;;;;;2.85;2.40;;;14.90;75.00;;;15.82;33.95;99110.66;5183098;28;20326;-63
2021/03/28 12:39:59;;;;;;;3.53;2.42;;;15.00;76.30;;;15.94;32.56;99103.63;5183667;28;20288;-63
2021/03/28 12:42:46;;;;;;;6.00;3.13;;;15.10;74.50;;;15.96;33.91;99117.47;5182807;28;20205;-63
2021/03/28 12:45:38;;;;;;;4.05;2.63;;;15.20;75.40;;;15.90;32.86;99106.81;5182732;28;20203;-63
2021/03/28 12:48:35;;;;;;;3.42;2.60;;;15.10;74.10;;;15.83;33.80;99096.97;5182598;28;20254;-64
2021/03/28 12:51:22;;;;;;;5.75;2.90;;;15.20;75.40;;;15.92;33.53;99105.22;5183870;28;20309;-64